Time;durP1;ratioP1;P1;durP2;ratioP2;P2;SDS_P1;SDS_P2;PMS_P1;PMS_P2;Temp;Humidity;BMP_temperature;BMP_pressure;BME280_temperature;BME280_humidity;BME280_pressure;Samples;Min_cycle;Max_cycle;Signal;HPM_P1;HPM_P2
2022/03/24 00:01:48;;;;;;;26.23;13.50;;;9.50;59.20;;;;;;5094385;28;20096;-79
2022/03/24 00:04:14;;;;;;;18.33;11.87;;;9.60;59.60;;;;;;5076317;28;20369;-80
2022/03/24 00:06:40;;;;;;;22.13;12.27;;;9.50;59.70;;;;;;5094108;28;20074;-79
2022/03/24 00:09:06;;;;;;;19.83;11.83;;;9.50;59.90;;;;;;5076019;28;20077;-80
2022/03/24 00:11:32;;;;;;;23.90;12.67;;;9.50;60.00;;;;;;5075896;28;20051;-80
2022/03/24 00:13:58;;;;;;;23.10;12.03;;;9.50;59.70;;;;;;5059172;28;20063;-79
2022/03/24 00:16:24;;;;;;;23.90;12.37;;;9.50;58.90;;;;;;5076091;28;20373;-80
2022/03/24 00:18:50;;;;;;;23.43;12.30;;;9.50;58.20;;;;;;5093882;28;20110;-79
2022/03/24 00:21:16;;;;;;;20.77;11.73;;;9.50;57.50;;;;;;5075703;28;20027;-80
2022/03/24 00:23:43;;;;;;;21.07;13.07;;;9.60;56.90;;;;;;5075745;28;20126;-80
2022/03/24 00:26:08;;;;;;;20.13;11.97;;;9.60;56.50;;;;;;5075638;28;20028;-80
2022/03/24 00:28:34;;;;;;;18.23;11.67;;;9.60;56.10;;;;;;5093898;28;20032;-80
2022/03/24 00:31:01;;;;;;;21.77;12.27;;;9.60;55.70;;;;;;5093761;28;20166;-80
2022/03/24 00:33:28;;;;;;;20.70;12.07;;;9.70;55.50;;;;;;5075554;28;20035;-80
2022/03/24 00:35:54;;;;;;;24.87;11.60;;;9.70;55.20;;;;;;5075613;28;20032;-80
2022/03/24 00:38:20;;;;;;;20.90;11.97;;;9.60;54.90;;;;;;5094103;28;20460;-80
2022/03/24 00:40:45;;;;;;;20.57;12.77;;;9.70;54.70;;;;;;5042407;28;20028;-80
2022/03/24 00:43:11;;;;;;;21.50;12.27;;;9.60;54.50;;;;;;5093681;28;20028;-80
2022/03/24 00:45:40;;;;;;;22.50;11.63;;;9.60;54.30;;;;;;5093665;28;20395;-80
2022/03/24 00:48:07;;;;;;;20.57;11.77;;;9.60;54.10;;;;;;5093592;28;20074;-79
2022/03/24 00:50:34;;;;;;;22.47;12.40;;;9.60;54.00;;;;;;5075614;28;20047;-79
2022/03/24 00:53:01;;;;;;;25.67;12.90;;;9.60;53.90;;;;;;5093935;28;20361;-80
2022/03/24 00:55:26;;;;;;;21.90;12.67;;;9.60;53.80;;;;;;5075894;28;20035;-79
2022/03/24 00:57:55;;;;;;;19.30;12.57;;;9.60;53.70;;;;;;5074819;28;20032;-79
2022/03/24 01:00:25;;;;;;;22.40;12.10;;;9.60;53.70;;;;;;5093865;28;20032;-80
2022/03/24 01:02:53;;;;;;;23.17;13.17;;;9.50;53.60;;;;;;5093428;28;20028;-79
2022/03/24 01:05:20;;;;;;;20.33;11.80;;;9.50;54.20;;;;;;5075265;28;20028;-80
2022/03/24 01:07:46;;;;;;;19.23;11.53;;;9.50;53.60;;;;;;5093401;28;20032;-79
2022/03/24 01:10:15;;;;;;;24.40;12.63;;;9.40;53.60;;;;;;5093294;28;20036;-79
2022/03/24 01:12:42;;;;;;;23.70;12.83;;;9.40;53.50;;;;;;5093257;28;20106;-79
2022/03/24 01:15:14;;;;;;;20.17;12.37;;;9.40;53.60;;;;;;5075331;28;20036;-80
2022/03/24 01:17:40;;;;;;;21.60;12.70;;;9.30;53.60;;;;;;5093048;28;20086;-79
2022/03/24 01:20:07;;;;;;;20.80;11.43;;;9.30;53.80;;;;;;5058476;28;20115;-80
2022/03/24 01:22:33;;;;;;;20.93;12.20;;;9.30;53.90;;;;;;5075130;28;20027;-79
2022/03/24 01:24:59;;;;;;;20.53;12.23;;;9.40;54.20;;;;;;5075064;28;20028;-79
2022/03/24 01:27:26;;;;;;;22.13;12.90;;;9.30;54.50;;;;;;5075086;28;20396;-79
2022/03/24 01:29:54;;;;;;;22.73;12.80;;;9.20;54.80;;;;;;5075206;28;20058;-79
2022/03/24 01:32:20;;;;;;;22.07;12.93;;;9.20;55.50;;;;;;5075194;28;20028;-80
2022/03/24 01:34:46;;;;;;;18.23;11.07;;;9.10;55.90;;;;;;5075091;28;20036;-79
2022/03/24 01:37:12;;;;;;;21.03;11.73;;;9.10;56.30;;;;;;5075030;28;20052;-80
2022/03/24 01:39:38;;;;;;;21.60;12.40;;;9.10;56.50;;;;;;5093089;28;20472;-80
2022/03/24 01:42:05;;;;;;;21.93;12.47;;;9.00;56.90;;;;;;5093147;28;20028;-79
2022/03/24 01:44:31;;;;;;;24.67;12.77;;;9.00;57.10;;;;;;5074911;28;20081;-79
2022/03/24 01:47:08;;;;;;;26.00;14.00;;;8.90;57.80;;;;;;5093040;28;20064;-80
2022/03/24 01:49:37;;;;;;;20.67;12.47;;;8.80;58.30;;;;;;5093038;28;20059;-79
2022/03/24 01:52:08;;;;;;;20.20;12.67;;;8.80;58.80;;;;;;5075573;28;20038;-80
2022/03/24 01:54:36;;;;;;;24.17;14.00;;;8.70;59.10;;;;;;5092899;28;20063;-79
2022/03/24 01:57:03;;;;;;;21.27;13.30;;;8.50;59.00;;;;;;5074922;28;20476;-80
2022/03/24 01:59:29;;;;;;;24.00;15.07;;;8.50;59.10;;;;;;5074713;28;20028;-79
2022/03/24 02:01:55;;;;;;;27.07;14.03;;;8.50;59.50;;;;;;5074933;28;20472;-80
2022/03/24 02:04:21;;;;;;;25.80;13.73;;;8.50;59.70;;;;;;5092898;28;20035;-79
2022/03/24 02:06:48;;;;;;;20.63;13.23;;;8.40;59.80;;;;;;5092839;28;20494;-80
2022/03/24 02:09:15;;;;;;;24.13;13.13;;;8.40;59.90;;;;;;5092697;28;20442;-79
2022/03/24 02:11:41;;;;;;;23.47;12.17;;;8.30;60.00;;;;;;5096190;28;20028;-80
2022/03/24 02:14:07;;;;;;;23.00;13.13;;;8.30;59.90;;;;;;5061615;28;20032;-79
2022/03/24 02:16:38;;;;;;;25.23;12.33;;;8.20;59.60;;;;;;5078256;28;20480;-79
2022/03/24 02:19:17;;;;;;;22.10;12.67;;;8.20;59.70;;;;;;5078844;28;20035;-80
2022/03/24 02:21:44;;;;;;;27.03;13.40;;;8.20;60.20;;;;;;5096057;28;20535;-80
2022/03/24 02:24:15;;;;;;;22.33;12.83;;;8.10;60.50;;;;;;5096425;28;20028;-79
2022/03/24 02:26:42;;;;;;;24.30;12.83;;;7.90;60.80;;;;;;5096446;28;20028;-79
2022/03/24 02:29:10;;;;;;;28.57;13.93;;;7.90;61.00;;;;;;5078120;28;20028;-79
2022/03/24 02:31:38;;;;;;;23.13;13.43;;;7.90;61.10;;;;;;5096039;28;20032;-79
2022/03/24 02:36:54;;;;;;;20.47;12.43;;;7.80;61.70;;;;;;5096198;28;20046;-79
2022/03/24 02:39:20;;;;;;;25.17;13.30;;;7.70;62.50;;;;;;5077745;28;20446;-80
2022/03/24 02:41:51;;;;;;;20.47;12.03;;;7.70;62.30;;;;;;5096061;28;20047;-79
2022/03/24 02:44:18;;;;;;;26.77;13.33;;;7.70;62.80;;;;;;5060987;28;20052;-79
2022/03/24 02:46:47;;;;;;;20.13;12.97;;;7.60;63.00;;;;;;5061047;28;20032;-79
2022/03/24 02:49:13;;;;;;;23.60;13.20;;;7.60;63.30;;;;;;5078027;28;20020;-80
2022/03/24 02:51:39;;;;;;;22.23;12.67;;;7.40;63.60;;;;;;5077504;28;20060;-79
2022/03/24 02:54:05;;;;;;;21.17;12.10;;;7.50;63.90;;;;;;5095509;28;20403;-80
2022/03/24 02:56:31;;;;;;;22.47;12.33;;;7.50;64.20;;;;;;5077538;28;20040;-79
2022/03/24 02:58:57;;;;;;;26.47;12.40;;;7.40;64.50;;;;;;5095518;28;20056;-79
2022/03/24 03:01:25;;;;;;;24.30;13.23;;;7.40;64.90;;;;;;5077252;28;20473;-80
2022/03/24 03:03:52;;;;;;;20.03;13.00;;;7.30;65.10;;;;;;5044365;28;20396;-79
2022/03/24 03:06:19;;;;;;;24.90;13.23;;;7.20;65.40;;;;;;5060988;28;20429;-80
2022/03/24 03:08:46;;;;;;;26.90;14.47;;;7.30;65.70;;;;;;5095340;28;20020;-79
2022/03/24 03:11:11;;;;;;;26.87;13.93;;;7.20;65.90;;;;;;5077129;28;20028;-79
2022/03/24 03:13:37;;;;;;;20.57;13.07;;;7.20;66.40;;;;;;5060666;28;20028;-79
2022/03/24 03:16:04;;;;;;;21.10;13.70;;;7.10;66.60;;;;;;5060301;28;20024;-79
2022/03/24 03:18:32;;;;;;;26.13;13.33;;;7.10;67.00;;;;;;5060083;28;20479;-80
2022/03/24 03:20:59;;;;;;;23.50;12.97;;;7.10;67.40;;;;;;5076332;28;20032;-79
2022/03/24 03:23:25;;;;;;;21.53;13.00;;;7.00;68.20;;;;;;5095021;28;20048;-79
2022/03/24 03:25:51;;;;;;;25.27;14.93;;;7.00;67.80;;;;;;5095196;28;20107;-80
2022/03/24 03:28:16;;;;;;;23.00;14.13;;;7.00;68.00;;;;;;5095133;28;20055;-79
2022/03/24 03:30:43;;;;;;;24.13;13.57;;;6.90;68.10;;;;;;5076895;28;20081;-80
2022/03/24 03:33:10;;;;;;;23.33;13.87;;;6.90;68.40;;;;;;5077527;28;20024;-81
2022/03/24 03:35:36;;;;;;;23.27;14.17;;;6.90;68.60;;;;;;5076802;28;20047;-80
2022/03/24 03:38:02;;;;;;;23.90;13.93;;;6.90;68.70;;;;;;5060367;28;20044;-79
2022/03/24 03:40:28;;;;;;;26.90;14.30;;;6.80;68.60;;;;;;5094798;28;20046;-80
2022/03/24 03:42:53;;;;;;;25.73;14.10;;;6.80;68.70;;;;;;5095340;28;20368;-80
2022/03/24 03:45:19;;;;;;;25.23;13.53;;;6.80;68.60;;;;;;5060468;28;20464;-80
2022/03/24 03:47:45;;;;;;;29.30;14.57;;;6.80;68.70;;;;;;5094596;28;20028;-80
2022/03/24 03:50:11;;;;;;;24.03;14.40;;;6.80;68.70;;;;;;5076961;28;20560;-80
2022/03/24 03:52:37;;;;;;;26.23;14.40;;;6.80;68.80;;;;;;5059828;28;20496;-80
2022/03/24 03:55:03;;;;;;;24.40;14.50;;;6.70;68.70;;;;;;5076156;28;20024;-80
2022/03/24 03:57:29;;;;;;;24.73;14.33;;;6.70;68.70;;;;;;5076225;28;20058;-80
2022/03/24 03:59:55;;;;;;;25.60;15.13;;;6.70;68.90;;;;;;5076886;28;20073;-80
2022/03/24 04:02:20;;;;;;;25.03;15.40;;;6.60;68.90;;;;;;5076215;28;20024;-80
2022/03/24 04:04:46;;;;;;;22.77;13.77;;;6.60;68.90;;;;;;5059659;28;20032;-80
2022/03/24 04:07:12;;;;;;;26.40;14.87;;;6.60;68.90;;;;;;5059383;28;20040;-80
2022/03/24 04:09:38;;;;;;;25.37;14.97;;;6.60;69.00;;;;;;5094345;28;20384;-80
2022/03/24 04:12:04;;;;;;;24.10;15.20;;;6.50;69.10;;;;;;5094164;28;20020;-80
2022/03/24 04:14:30;;;;;;;24.80;15.10;;;6.50;69.20;;;;;;5075875;28;20036;-80
2022/03/24 04:16:57;;;;;;;25.70;14.47;;;6.50;69.40;;;;;;5078967;28;20024;-80
2022/03/24 04:19:24;;;;;;;25.03;15.23;;;6.50;69.50;;;;;;5055756;28;20032;-80
2022/03/24 04:21:50;;;;;;;24.53;15.43;;;6.50;69.70;;;;;;5056019;28;20028;-80
2022/03/24 04:24:16;;;;;;;24.47;15.73;;;6.50;69.90;;;;;;5073611;28;20036;-80
2022/03/24 04:26:41;;;;;;;24.57;14.23;;;6.50;69.90;;;;;;5038898;28;20021;-81
2022/03/24 04:29:07;;;;;;;25.00;15.50;;;6.40;70.10;;;;;;5055552;28;20464;-79
2022/03/24 04:31:34;;;;;;;27.87;15.60;;;6.40;70.20;;;;;;5055604;28;20021;-80
2022/03/24 04:33:59;;;;;;;23.17;13.90;;;6.40;70.40;;;;;;5072706;28;20020;-80
2022/03/24 04:36:25;;;;;;;26.83;15.70;;;6.30;70.50;;;;;;5073393;28;20067;-80
2022/03/24 04:38:50;;;;;;;26.63;14.90;;;6.30;70.80;;;;;;5055532;28;20017;-80
2022/03/24 04:41:16;;;;;;;26.13;14.57;;;6.20;70.90;;;;;;5038902;28;20508;-80
2022/03/24 04:43:42;;;;;;;26.00;15.23;;;6.20;71.10;;;;;;5038765;28;20480;-80
2022/03/24 04:46:09;;;;;;;24.43;14.90;;;6.10;71.30;;;;;;5073210;28;20107;-80
2022/03/24 04:48:38;;;;;;;24.37;14.27;;;6.10;71.50;;;;;;5055463;28;20370;-80
2022/03/24 04:51:06;;;;;;;23.93;13.77;;;6.00;71.70;;;;;;5073216;28;20055;-80
2022/03/24 04:53:32;;;;;;;27.63;15.03;;;6.00;71.90;;;;;;5055237;28;20031;-80
2022/03/24 04:55:58;;;;;;;24.37;15.87;;;5.90;72.00;;;;;;5073245;28;20025;-80
2022/03/24 04:58:23;;;;;;;25.07;15.57;;;5.90;72.20;;;;;;5073243;28;20102;-80
2022/03/24 05:00:49;;;;;;;26.77;14.77;;;6.00;72.30;;;;;;5073273;28;20033;-80
2022/03/24 05:03:15;;;;;;;29.77;15.77;;;5.90;72.20;;;;;;5073108;28;20536;-80
2022/03/24 05:05:40;;;;;;;26.63;15.10;;;5.90;72.30;;;;;;5038547;28;20559;-80
2022/03/24 05:08:06;;;;;;;26.43;15.33;;;5.90;72.20;;;;;;5054929;28;20138;-80
2022/03/24 05:10:32;;;;;;;24.90;15.30;;;5.80;72.20;;;;;;5038261;28;20651;-80
2022/03/24 05:12:57;;;;;;;23.70;14.10;;;5.80;72.30;;;;;;5055109;28;20074;-80
2022/03/24 05:15:23;;;;;;;24.40;14.47;;;5.80;72.50;;;;;;5073093;28;20480;-80
2022/03/24 05:17:50;;;;;;;31.43;14.67;;;5.80;72.60;;;;;;5073043;28;20029;-80
2022/03/24 05:20:16;;;;;;;28.40;15.80;;;5.80;72.60;;;;;;5038280;28;20431;-80
2022/03/24 05:22:42;;;;;;;24.30;14.30;;;5.80;72.50;;;;;;5074659;28;20058;-80
2022/03/24 05:25:08;;;;;;;26.43;16.07;;;5.80;72.60;;;;;;5058312;28;20028;-80
2022/03/24 05:27:34;;;;;;;27.57;15.43;;;5.70;72.50;;;;;;5092979;28;20056;-80
2022/03/24 05:29:59;;;;;;;28.77;15.63;;;5.70;72.60;;;;;;5055581;28;20054;-80
2022/03/24 05:32:27;;;;;;;24.03;15.13;;;5.70;72.80;;;;;;5073289;28;20037;-80
2022/03/24 05:34:53;;;;;;;22.73;14.33;;;5.80;73.20;;;;;;5075433;28;20033;-80
2022/03/24 05:37:19;;;;;;;22.03;13.77;;;5.70;73.40;;;;;;5072833;28;20140;-80
2022/03/24 05:39:45;;;;;;;26.83;14.80;;;5.60;73.50;;;;;;5054825;28;20032;-79
2022/03/24 05:42:10;;;;;;;25.10;14.33;;;5.60;73.70;;;;;;5072642;28;20087;-79
2022/03/24 05:44:36;;;;;;;24.83;14.60;;;5.60;73.80;;;;;;5040096;28;20021;-79
2022/03/24 05:47:03;;;;;;;22.20;14.23;;;5.60;74.10;;;;;;5076737;28;20035;-79
2022/03/24 05:49:29;;;;;;;27.37;14.80;;;5.60;74.20;;;;;;5076396;28;20059;-79
2022/03/24 05:51:54;;;;;;;25.63;16.30;;;5.60;74.40;;;;;;5076478;28;20056;-79
2022/03/24 05:54:21;;;;;;;25.13;15.20;;;5.60;74.60;;;;;;5058670;28;20024;-79
2022/03/24 05:56:48;;;;;;;24.87;15.13;;;5.60;74.70;;;;;;5058396;28;20102;-80
2022/03/24 05:59:15;;;;;;;28.87;15.90;;;5.60;74.90;;;;;;5076402;28;20016;-79
2022/03/24 06:01:42;;;;;;;25.03;14.93;;;5.60;75.00;;;;;;5076427;28;20021;-79
2022/03/24 06:04:13;;;;;;;29.97;14.80;;;5.60;75.20;;;;;;5058517;28;20094;-80
2022/03/24 06:06:39;;;;;;;26.53;15.83;;;5.60;75.30;;;;;;5058069;28;20101;-79
2022/03/24 06:09:06;;;;;;;26.73;14.87;;;5.70;75.30;;;;;;5058618;28;20075;-79
2022/03/24 06:11:34;;;;;;;27.30;16.00;;;5.70;75.30;;;;;;5058251;28;20060;-79
2022/03/24 06:14:00;;;;;;;27.03;14.57;;;5.60;75.30;;;;;;5058165;28;20114;-79
2022/03/24 06:16:27;;;;;;;28.60;15.13;;;5.70;75.40;;;;;;5073144;28;20055;-79
2022/03/24 06:18:52;;;;;;;27.93;15.03;;;5.70;75.50;;;;;;5077956;28;20412;-79
2022/03/24 06:21:18;;;;;;;30.13;15.43;;;5.80;75.50;;;;;;5096137;28;20027;-79
2022/03/24 06:23:44;;;;;;;26.67;15.60;;;5.90;75.50;;;;;;5057917;28;20397;-79
2022/03/24 06:26:09;;;;;;;25.23;15.00;;;5.90;75.50;;;;;;5057959;28;20059;-79
2022/03/24 06:28:35;;;;;;;27.03;16.67;;;5.90;75.40;;;;;;5057970;28;20111;-79
2022/03/24 06:31:01;;;;;;;29.57;15.80;;;5.90;75.30;;;;;;5057668;28;20063;-79
2022/03/24 06:33:26;;;;;;;27.77;16.37;;;5.90;75.10;;;;;;5046307;28;20549;-79
2022/03/24 06:35:52;;;;;;;26.07;15.77;;;6.00;74.90;;;;;;5080819;28;20032;-79
2022/03/24 06:38:19;;;;;;;28.20;16.93;;;6.00;74.90;;;;;;5066313;28;20024;-79
2022/03/24 06:40:45;;;;;;;25.40;16.07;;;6.00;74.90;;;;;;5069165;28;20024;-79
2022/03/24 06:43:11;;;;;;;28.07;17.20;;;6.00;74.90;;;;;;5083134;28;20085;-79
2022/03/24 06:45:37;;;;;;;26.73;17.33;;;6.00;75.50;;;;;;5061354;28;20035;-79
2022/03/24 06:48:06;;;;;;;29.83;17.10;;;6.10;75.10;;;;;;5075188;28;20055;-79
2022/03/24 06:50:32;;;;;;;27.20;16.13;;;6.10;75.20;;;;;;5078017;28;20024;-79
2022/03/24 06:52:58;;;;;;;27.67;17.10;;;6.30;75.20;;;;;;5095780;28;20046;-79
2022/03/24 06:55:24;;;;;;;25.77;16.37;;;6.20;75.10;;;;;;5094837;28;20472;-80
2022/03/24 06:57:49;;;;;;;26.13;16.73;;;6.30;74.70;;;;;;5095638;28;20104;-80
2022/03/24 07:00:15;;;;;;;26.83;17.67;;;6.30;74.40;;;;;;5095570;28;20020;-80
2022/03/24 07:02:43;;;;;;;26.60;17.27;;;6.30;74.10;;;;;;5095489;28;20027;-80
2022/03/24 07:05:09;;;;;;;30.20;17.73;;;6.40;73.80;;;;;;5060332;28;20055;-80
2022/03/24 07:07:35;;;;;;;28.93;17.57;;;6.40;73.60;;;;;;5077311;28;20036;-81
2022/03/24 07:10:01;;;;;;;33.07;17.10;;;6.50;73.30;;;;;;5095656;28;20360;-80
2022/03/24 07:12:27;;;;;;;33.97;17.97;;;6.50;73.10;;;;;;5047457;28;20373;-79
2022/03/24 07:14:53;;;;;;;29.83;17.57;;;6.60;73.10;;;;;;5057005;28;20029;-80
2022/03/24 07:17:19;;;;;;;28.10;17.20;;;6.60;73.10;;;;;;5055869;28;20029;-79
2022/03/24 07:19:45;;;;;;;27.47;17.60;;;6.70;73.10;;;;;;5056702;28;20028;-79
2022/03/24 07:22:11;;;;;;;33.23;19.90;;;6.70;73.30;;;;;;5074250;28;20028;-78
2022/03/24 07:24:36;;;;;;;28.80;17.20;;;6.80;73.40;;;;;;5056363;28;20480;-79
2022/03/24 07:27:02;;;;;;;30.70;18.10;;;6.90;74.10;;;;;;5056326;28;20032;-81
2022/03/24 07:29:28;;;;;;;31.20;19.37;;;7.00;73.40;;;;;;5056472;28;20058;-80
2022/03/24 07:31:54;;;;;;;29.70;17.93;;;7.10;73.40;;;;;;5056401;28;20170;-80
2022/03/24 07:34:20;;;;;;;35.27;19.30;;;7.10;73.10;;;;;;5074184;28;20025;-79
2022/03/24 07:36:46;;;;;;;32.20;18.70;;;7.30;73.00;;;;;;5056257;28;20129;-79
2022/03/24 07:39:12;;;;;;;35.00;20.10;;;7.30;72.50;;;;;;5056448;28;20025;-80
2022/03/24 07:41:38;;;;;;;37.07;19.90;;;7.50;72.30;;;;;;5040071;28;20106;-80
2022/03/24 07:44:04;;;;;;;32.83;19.83;;;7.50;71.90;;;;;;5056757;28;20025;-80
2022/03/24 07:46:30;;;;;;;32.23;19.47;;;7.70;71.60;;;;;;5039544;28;20123;-80
2022/03/24 07:48:56;;;;;;;32.13;19.90;;;7.70;71.20;;;;;;5074121;28;20016;-80
2022/03/24 07:51:21;;;;;;;31.03;19.17;;;7.80;70.90;;;;;;5039705;28;20082;-80
2022/03/24 07:53:47;;;;;;;34.20;20.53;;;7.90;70.70;;;;;;5074169;28;20082;-80
2022/03/24 07:56:14;;;;;;;29.03;18.83;;;8.10;70.50;;;;;;5074000;28;20035;-80
2022/03/24 07:58:39;;;;;;;31.17;18.90;;;8.20;70.30;;;;;;5074074;28;20035;-80
2022/03/24 08:01:06;;;;;;;31.07;19.03;;;8.30;70.90;;;;;;5056562;28;20024;-80
2022/03/24 08:03:32;;;;;;;29.87;18.60;;;8.30;70.10;;;;;;5056098;28;20048;-80
2022/03/24 08:05:58;;;;;;;31.40;20.27;;;8.50;70.30;;;;;;5073936;28;20048;-80
2022/03/24 08:08:26;;;;;;;29.13;19.07;;;8.60;70.30;;;;;;5073779;28;20056;-77
2022/03/24 08:10:53;;;;;;;30.23;19.23;;;8.70;70.20;;;;;;5073924;28;20107;-80
2022/03/24 08:13:20;;;;;;;32.27;20.80;;;8.80;70.10;;;;;;5056002;28;20021;-78
2022/03/24 08:15:46;;;;;;;32.50;21.10;;;8.90;70.00;;;;;;5039330;28;20029;-78
2022/03/24 08:18:13;;;;;;;28.53;18.73;;;8.90;69.90;;;;;;5055728;28;20021;-78
2022/03/24 08:20:39;;;;;;;31.40;20.63;;;9.10;69.60;;;;;;5073660;28;20159;-77
2022/03/24 08:23:11;;;;;;;29.90;20.00;;;9.20;69.90;;;;;;5073521;28;20054;-78
2022/03/24 08:25:42;;;;;;;30.33;20.10;;;9.30;69.00;;;;;;5055936;28;20428;-73
2022/03/24 08:28:10;;;;;;;29.87;19.77;;;9.40;68.70;;;;;;5074003;28;20082;-72
2022/03/24 08:30:36;;;;;;;32.33;19.83;;;9.50;68.30;;;;;;5055634;28;20500;-73
2022/03/24 08:33:02;;;;;;;30.53;18.77;;;9.70;67.80;;;;;;5073633;28;20154;-73
2022/03/24 08:35:28;;;;;;;32.43;20.90;;;9.70;67.30;;;;;;5055915;28;20123;-72
2022/03/24 08:37:59;;;;;;;30.73;18.93;;;9.80;66.90;;;;;;5039424;28;20468;-72
2022/03/24 08:40:25;;;;;;;31.23;19.07;;;9.90;66.50;;;;;;5073383;28;20029;-72
2022/03/24 08:42:50;;;;;;;31.10;19.13;;;10.00;66.00;;;;;;5055456;28;20031;-72
2022/03/24 08:45:16;;;;;;;27.63;18.87;;;10.20;65.60;;;;;;5038908;28;20349;-72
2022/03/24 08:47:43;;;;;;;27.53;18.70;;;10.30;65.20;;;;;;5055166;28;20016;-72
2022/03/24 08:50:10;;;;;;;32.33;20.67;;;10.50;64.80;;;;;;5038604;28;20480;-72
2022/03/24 08:52:36;;;;;;;32.30;19.58;;;10.50;64.40;;;;;;5055493;28;20044;-78
2022/03/24 08:55:06;;;;;;;27.60;18.65;;;10.60;64.00;;;;;;5073228;28;20089;-79
2022/03/24 08:57:34;;;;;;;28.20;19.07;;;10.80;63.50;;;;;;5022446;28;20115;-79
2022/03/24 09:00:01;;;;;;;31.80;18.52;;;10.90;63.10;;;;;;5038846;28;20029;-79
2022/03/24 09:02:27;;;;;;;30.30;18.95;;;11.00;62.60;;;;;;5073199;28;20020;-80
2022/03/24 09:04:53;;;;;;;28.38;19.67;;;11.10;62.20;;;;;;5055237;28;20025;-81
2022/03/24 09:07:19;;;;;;;26.30;18.00;;;11.20;61.80;;;;;;5055491;28;20032;-81
2022/03/24 09:09:45;;;;;;;25.48;17.95;;;11.40;61.40;;;;;;5055204;28;20115;-78
2022/03/24 09:12:11;;;;;;;27.92;18.88;;;11.50;61.00;;;;;;5073273;28;20056;-79
2022/03/24 09:14:40;;;;;;;28.27;17.25;;;11.60;60.60;;;;;;5073034;28;20041;-79
2022/03/24 09:17:07;;;;;;;25.25;17.48;;;11.80;60.30;;;;;;5054944;28;20086;-79
2022/03/24 09:19:33;;;;;;;28.85;17.55;;;11.90;59.80;;;;;;5057210;28;20078;-80
2022/03/24 09:22:00;;;;;;;31.85;17.75;;;12.10;59.40;;;;;;5059095;28;20024;-79
2022/03/24 09:24:27;;;;;;;29.58;17.00;;;12.20;58.80;;;;;;5059002;28;20024;-79
2022/03/24 09:26:53;;;;;;;26.08;16.50;;;12.30;58.10;;;;;;5077241;28;20033;-79
2022/03/24 09:29:18;;;;;;;22.50;15.70;;;12.40;57.50;;;;;;5059202;28;20037;-79
2022/03/24 09:31:44;;;;;;;22.95;16.42;;;12.60;57.10;;;;;;5058920;28;20039;-79
2022/03/24 09:34:10;;;;;;;21.05;15.00;;;12.80;56.50;;;;;;5077061;28;20037;-79
2022/03/24 09:36:36;;;;;;;21.02;15.40;;;12.80;55.80;;;;;;5058736;28;20055;-80
2022/03/24 09:39:03;;;;;;;24.10;16.67;;;12.90;55.20;;;;;;5076648;28;20029;-79
2022/03/24 09:41:30;;;;;;;24.33;17.60;;;13.10;54.60;;;;;;5042071;28;20023;-80
2022/03/24 09:43:58;;;;;;;25.75;16.00;;;13.20;54.20;;;;;;5058701;28;20031;-79
2022/03/24 09:46:26;;;;;;;23.85;15.80;;;13.30;53.60;;;;;;5058615;28;20374;-79
2022/03/24 09:48:52;;;;;;;22.13;15.43;;;13.50;53.80;;;;;;5076525;28;20024;-80
2022/03/24 09:51:18;;;;;;;22.48;16.02;;;13.60;52.70;;;;;;5042013;28;20510;-80
2022/03/24 09:53:44;;;;;;;22.65;16.60;;;13.70;52.30;;;;;;5058982;28;20032;-80
2022/03/24 09:56:10;;;;;;;21.95;16.10;;;13.80;51.90;;;;;;5076436;28;20499;-80
2022/03/24 09:58:36;;;;;;;20.52;15.30;;;14.00;51.70;;;;;;5041922;28;20025;-79
2022/03/24 10:01:02;;;;;;;25.00;16.02;;;14.10;51.40;;;;;;5076326;28;20031;-79
2022/03/24 10:03:27;;;;;;;24.58;16.70;;;14.20;51.00;;;;;;5041780;28;20020;-79
2022/03/24 10:05:57;;;;;;;21.88;15.57;;;14.30;50.80;;;;;;5058934;28;20033;-78
2022/03/24 10:08:23;;;;;;;21.90;14.82;;;14.50;50.60;;;;;;5076184;28;20045;-79
2022/03/24 10:10:49;;;;;;;20.50;13.73;;;14.60;50.20;;;;;;5058188;28;20021;-79
2022/03/24 10:13:41;;;;;;;19.50;13.13;;;14.80;50.10;;;;;;5076065;28;20082;-79
2022/03/24 10:16:08;;;;;;;21.25;12.35;;;15.00;49.50;;;;;;5050011;28;20032;-80
2022/03/24 10:18:34;;;;;;;20.45;12.77;;;15.30;49.60;;;;;;5041398;28;20021;-79
2022/03/24 10:21:08;;;;;;;22.35;11.98;;;15.60;49.30;;;;;;5058197;28;20031;-79
2022/03/24 10:23:43;;;;;;;19.45;11.98;;;15.80;48.70;;;;;;5075881;28;20047;-79
2022/03/24 10:26:08;;;;;;;16.75;10.95;;;16.00;48.40;;;;;;5075779;28;20431;-79
2022/03/24 10:28:34;;;;;;;15.95;11.10;;;16.20;48.10;;;;;;5075766;28;20033;-80
2022/03/24 10:31:02;;;;;;;17.40;11.52;;;16.50;47.40;;;;;;5056385;28;20021;-79
2022/03/24 10:33:37;;;;;;;18.52;12.18;;;16.70;46.70;;;;;;5058151;28;20109;-79
2022/03/24 10:36:17;;;;;;;17.13;11.18;;;17.00;46.20;;;;;;5075485;28;20421;-79
2022/03/24 10:38:49;;;;;;;19.27;12.20;;;17.30;45.70;;;;;;5075525;28;20094;-79
2022/03/24 10:41:22;;;;;;;17.48;11.52;;;17.60;45.50;;;;;;5057459;28;20013;-80
2022/03/24 10:43:49;;;;;;;18.63;12.90;;;17.80;45.20;;;;;;5057613;28;20067;-80
2022/03/24 10:46:23;;;;;;;19.00;12.60;;;18.00;45.00;;;;;;5057522;28;20089;-80
2022/03/24 10:48:51;;;;;;;17.63;12.30;;;18.20;44.50;;;;;;5075535;28;20025;-79
2022/03/24 10:51:27;;;;;;;19.33;11.50;;;18.50;44.20;;;;;;5075684;28;20067;-80
2022/03/24 10:54:15;;;;;;;19.23;12.85;;;18.90;43.40;;;;;;5075271;28;20019;-80
2022/03/24 10:57:05;;;;;;;20.67;13.38;;;19.20;42.50;;;;;;5075214;28;20074;-80
2022/03/24 10:59:36;;;;;;;21.63;13.23;;;19.40;42.20;;;;;;5047053;28;20032;-80
2022/03/24 11:02:02;;;;;;;22.63;12.80;;;19.80;41.90;;;;;;5075504;28;20028;-80
2022/03/24 11:04:27;;;;;;;19.77;13.35;;;20.00;41.50;;;;;;5057556;28;20035;-82
2022/03/24 11:06:53;;;;;;;18.92;13.02;;;20.20;41.00;;;;;;5075604;28;20033;-80
2022/03/24 11:09:33;;;;;;;19.85;13.38;;;20.50;40.40;;;;;;5057206;28;20107;-80
2022/03/24 11:12:38;;;;;;;17.88;12.98;;;20.70;39.50;;;;;;5057631;28;20460;-81
2022/03/24 11:15:07;;;;;;;19.90;12.45;;;21.00;39.00;;;;;;5056940;28;20116;-79
2022/03/24 11:17:35;;;;;;;20.27;13.00;;;21.20;39.20;;;;;;5075266;28;20028;-80
2022/03/24 11:20:09;;;;;;;16.98;12.70;;;21.40;38.80;;;;;;5057039;28;20079;-80
2022/03/24 11:22:41;;;;;;;17.65;13.88;;;21.70;38.10;;;;;;5056656;28;20070;-80
2022/03/24 11:25:07;;;;;;;21.25;13.43;;;22.00;37.80;;;;;;5056669;28;20090;-80
2022/03/24 11:27:33;;;;;;;20.52;13.80;;;22.30;37.70;;;;;;5056983;28;20082;-79
2022/03/24 11:30:04;;;;;;;19.10;13.45;;;22.50;37.10;;;;;;5074519;28;20484;-80
2022/03/24 11:32:31;;;;;;;16.67;13.27;;;22.70;37.30;;;;;;5074727;28;20609;-80
2022/03/24 11:34:58;;;;;;;20.75;13.02;;;22.90;36.40;;;;;;5056810;28;20036;-80
2022/03/24 11:37:24;;;;;;;20.23;13.85;;;23.20;36.00;;;;;;5056669;28;20043;-80
2022/03/24 11:40:11;;;;;;;16.70;12.65;;;23.50;35.50;;;;;;5056554;28;20588;-80
2022/03/24 11:42:55;;;;;;;17.00;12.45;;;23.80;34.60;;;;;;5074144;28;20483;-81
2022/03/24 11:45:28;;;;;;;17.45;12.98;;;24.00;34.30;;;;;;5056222;28;20031;-80
2022/03/24 11:48:16;;;;;;;15.70;12.43;;;24.20;34.20;;;;;;5074315;28;20024;-80
2022/03/24 11:50:47;;;;;;;19.00;12.60;;;24.40;34.30;;;;;;5055641;28;20447;-80
2022/03/24 11:53:25;;;;;;;16.10;12.50;;;24.60;33.70;;;;;;5055947;28;20035;-80
2022/03/24 11:56:03;;;;;;;15.88;12.98;;;24.80;33.40;;;;;;5074254;28;20025;-80
2022/03/24 11:58:42;;;;;;;17.83;13.13;;;25.00;33.40;;;;;;5074090;28;20059;-81
2022/03/24 12:01:20;;;;;;;18.80;12.77;;;25.20;33.00;;;;;;5074256;28;20025;-81
2022/03/24 12:03:48;;;;;;;18.30;13.35;;;25.50;32.50;;;;;;5056265;28;20449;-81
2022/03/24 12:06:16;;;;;;;18.92;12.27;;;25.70;32.50;;;;;;5074013;28;20043;-80
2022/03/24 12:08:59;;;;;;;15.60;12.15;;;25.90;31.80;;;;;;5074191;28;20059;-80
2022/03/24 12:11:31;;;;;;;19.88;11.85;;;26.20;31.30;;;;;;5056053;28;20074;-82
2022/03/24 12:14:01;;;;;;;14.80;11.43;;;26.40;31.30;;;;;;5073867;28;20029;-81
2022/03/24 12:16:28;;;;;;;17.35;12.90;;;26.70;31.20;;;;;;5055708;28;20043;-80
2022/03/24 12:18:55;;;;;;;15.38;12.60;;;26.90;30.60;;;;;;5073755;28;20031;-80
2022/03/24 12:21:22;;;;;;;18.75;12.18;;;27.00;30.30;;;;;;5073845;28;20086;-81
2022/03/24 12:24:14;;;;;;;16.10;11.43;;;27.20;30.00;;;;;;5073415;28;20029;-81
2022/03/24 12:26:56;;;;;;;14.00;9.70;;;27.50;29.40;;;;;;5073682;28;20033;-83
2022/03/24 12:29:28;;;;;;;12.77;9.55;;;27.70;29.30;;;;;;5055563;28;20024;-81
2022/03/24 12:32:10;;;;;;;14.38;9.13;;;27.80;28.90;;;;;;5055507;28;20037;-81
2022/03/24 12:34:38;;;;;;;13.70;8.32;;;28.00;28.70;;;;;;5073365;28;20024;-83
2022/03/24 12:37:25;;;;;;;11.75;8.07;;;28.20;28.70;;;;;;5073266;28;20117;-81
2022/03/24 12:40:06;;;;;;;14.38;8.32;;;28.30;28.60;;;;;;5059292;28;20032;-81